createdAt,value
2018-01-16T00:00:08.650Z,87.44
2018-01-16T00:02:36.406Z,87.04
2018-01-16T00:05:04.152Z,86.66
2018-01-16T00:07:31.843Z,86.42
2018-01-16T00:09:59.638Z,85.73
2018-01-16T00:12:27.370Z,85.71
2018-01-16T00:14:55.053Z,85.80
2018-01-16T00:17:22.813Z,85.39
2018-01-16T00:19:50.526Z,85.37
2018-01-16T00:22:29.970Z,85.64
2018-01-16T00:24:57.672Z,85.84
2018-01-16T00:27:25.422Z,86.29
2018-01-16T00:29:53.119Z,86.20
2018-01-16T00:32:20.867Z,86.26
2018-01-16T00:34:48.622Z,86.49
2018-01-16T00:37:16.383Z,86.45
2018-01-16T00:39:44.050Z,86.08
2018-01-16T00:42:11.844Z,85.74
2018-01-16T00:44:39.637Z,85.67
2018-01-16T00:47:07.309Z,86.09
2018-01-16T00:49:35.445Z,86.62
2018-01-16T00:52:03.266Z,86.33
2018-01-16T00:54:31.040Z,86.30
2018-01-16T00:56:58.707Z,86.74
2018-01-16T00:59:26.456Z,86.72
2018-01-16T01:01:54.145Z,87.30
2018-01-16T01:04:21.866Z,86.94
2018-01-16T01:06:49.539Z,86.71
2018-01-16T01:09:17.268Z,86.60
2018-01-16T01:11:44.939Z,86.84
2018-01-16T01:14:12.677Z,87.34
2018-01-16T01:16:40.402Z,87.19
2018-01-16T01:19:08.144Z,86.85
2018-01-16T01:21:35.857Z,86.91
2018-01-16T01:24:03.605Z,86.96
2018-01-16T01:26:31.351Z,86.11
2018-01-16T01:28:59.062Z,86.21
2018-01-16T01:31:26.800Z,87.42
2018-01-16T01:33:54.522Z,88.05
2018-01-16T01:36:24.939Z,87.71
2018-01-16T01:38:52.694Z,87.10
2018-01-16T01:41:20.412Z,86.03
2018-01-16T01:43:48.102Z,86.08
2018-01-16T01:46:15.863Z,86.08
2018-01-16T01:48:43.623Z,85.76
2018-01-16T01:51:11.300Z,86.55
2018-01-16T01:53:39.018Z,86.77
2018-01-16T01:56:06.713Z,86.75
2018-01-16T01:58:34.433Z,86.61
2018-01-16T02:01:02.130Z,86.41
2018-01-16T02:03:30.209Z,86.64
2018-01-16T02:05:57.913Z,86.87
2018-01-16T02:08:25.620Z,86.51
2018-01-16T02:10:53.356Z,86.38
2018-01-16T02:13:21.155Z,86.09
2018-01-16T02:15:48.863Z,86.14
2018-01-16T02:18:16.561Z,86.11
2018-01-16T02:20:44.284Z,85.78
2018-01-16T02:23:11.980Z,85.82
2018-01-16T02:25:39.708Z,85.82
2018-01-16T02:28:07.441Z,85.90
2018-01-16T02:30:35.267Z,85.74
2018-01-16T02:33:02.985Z,85.58
2018-01-16T02:35:30.719Z,85.63
2018-01-16T02:37:58.434Z,85.99
2018-01-16T02:40:26.206Z,86.29
2018-01-16T02:42:53.957Z,86.79
2018-01-16T02:45:21.795Z,86.02
2018-01-16T02:47:49.574Z,86.05
2018-01-16T02:50:17.408Z,85.69
2018-01-16T02:52:45.167Z,85.19
2018-01-16T02:55:12.903Z,85.38
2018-01-16T02:57:40.626Z,85.27
2018-01-16T03:00:08.390Z,84.59
2018-01-16T03:02:36.119Z,85.54
2018-01-16T03:05:03.904Z,85.92
2018-01-16T03:07:31.621Z,86.18
2018-01-16T03:09:59.333Z,86.09
2018-01-16T03:12:27.093Z,86.38
2018-01-16T03:14:54.933Z,86.58
2018-01-16T03:17:22.679Z,86.20
2018-01-16T03:19:50.446Z,86.00
2018-01-16T03:22:18.152Z,86.17
2018-01-16T03:24:45.874Z,86.57
2018-01-16T03:27:13.712Z,86.34
2018-01-16T03:29:41.395Z,86.13
2018-01-16T03:32:09.064Z,86.34
2018-01-16T03:34:36.807Z,86.72
2018-01-16T03:37:04.486Z,87.59
2018-01-16T03:39:32.280Z,87.54
2018-01-16T03:42:00.035Z,87.30
2018-01-16T03:44:27.713Z,87.28
2018-01-16T03:46:55.611Z,87.68
2018-01-16T03:49:23.280Z,87.81
2018-01-16T03:51:50.946Z,87.79
2018-01-16T03:54:18.689Z,87.51
2018-01-16T03:56:46.420Z,87.65
2018-01-16T03:59:14.223Z,87.14
2018-01-16T04:01:41.915Z,87.73
2018-01-16T04:04:09.595Z,87.64
2018-01-16T04:06:37.343Z,87.85
2018-01-16T04:09:05.167Z,88.75
2018-01-16T04:11:32.839Z,88.74
2018-01-16T04:14:00.627Z,88.52
2018-01-16T04:16:28.408Z,88.94
2018-01-16T04:18:56.130Z,89.49
2018-01-16T04:21:23.912Z,89.95
2018-01-16T04:23:51.593Z,89.49
2018-01-16T04:26:19.311Z,89.43
2018-01-16T04:28:48.028Z,90.11
2018-01-16T04:31:15.749Z,90.39
2018-01-16T04:33:43.473Z,90.28
2018-01-16T04:36:11.156Z,89.86
2018-01-16T04:38:38.884Z,89.85
2018-01-16T04:41:06.594Z,89.53
2018-01-16T04:43:34.285Z,89.64
2018-01-16T04:46:02.016Z,89.61
2018-01-16T04:48:29.760Z,89.45
2018-01-16T04:50:57.484Z,89.66
2018-01-16T04:53:25.347Z,90.29
2018-01-16T04:55:53.132Z,89.96
2018-01-16T04:58:20.811Z,90.10
2018-01-16T05:00:48.548Z,90.91
2018-01-16T05:03:16.285Z,91.99
2018-01-16T05:05:43.994Z,92.10
2018-01-16T05:08:11.686Z,91.68
2018-01-16T05:10:39.398Z,91.56
2018-01-16T05:13:07.060Z,91.07
2018-01-16T05:15:34.775Z,91.08
2018-01-16T05:18:02.493Z,91.17
2018-01-16T05:20:30.311Z,90.84
2018-01-16T05:22:58.022Z,90.75
2018-01-16T05:25:25.801Z,90.65
2018-01-16T05:27:53.671Z,90.51
2018-01-16T05:30:21.372Z,90.43
2018-01-16T05:32:49.077Z,90.56
2018-01-16T05:35:16.853Z,90.72
2018-01-16T05:37:44.579Z,90.78
2018-01-16T05:40:12.430Z,90.75
2018-01-16T05:42:40.195Z,90.83
2018-01-16T05:45:07.945Z,90.62
2018-01-16T05:47:35.752Z,90.63
2018-01-16T05:50:03.573Z,91.00
2018-01-16T05:52:31.463Z,90.89
2018-01-16T05:54:59.218Z,90.29
2018-01-16T05:57:27.013Z,91.17
2018-01-16T05:59:54.693Z,90.94
2018-01-16T06:02:22.437Z,91.39
2018-01-16T06:04:50.171Z,91.87
2018-01-16T06:07:17.886Z,91.64
2018-01-16T06:09:45.566Z,91.67
2018-01-16T06:12:13.260Z,91.46
2018-01-16T06:14:41.010Z,91.68
2018-01-16T06:17:08.806Z,91.99
2018-01-16T06:19:36.580Z,91.95
2018-01-16T06:22:04.278Z,91.98
2018-01-16T06:24:32.043Z,92.09
2018-01-16T06:26:59.786Z,92.36
2018-01-16T06:29:27.534Z,92.84
2018-01-16T06:31:55.243Z,92.87
2018-01-16T06:34:22.963Z,93.04
2018-01-16T06:36:50.666Z,93.09
2018-01-16T06:39:18.410Z,92.75
2018-01-16T06:41:46.087Z,92.91
2018-01-16T06:44:13.874Z,93.31
2018-01-16T06:46:42.699Z,93.08
2018-01-16T06:49:10.471Z,92.35
2018-01-16T06:51:38.191Z,91.96
2018-01-16T06:54:05.979Z,91.65
2018-01-16T06:56:33.723Z,92.21
2018-01-16T06:59:01.441Z,92.55
2018-01-16T07:01:29.186Z,92.49
2018-01-16T07:03:56.967Z,92.60
2018-01-16T07:06:24.809Z,92.51
2018-01-16T07:08:52.543Z,92.26
2018-01-16T07:11:20.278Z,92.11
2018-01-16T07:13:48.008Z,92.00
2018-01-16T07:16:15.783Z,91.78
2018-01-16T07:18:43.503Z,91.89
2018-01-16T07:21:11.263Z,91.52
2018-01-16T07:23:38.996Z,91.40
2018-01-16T07:26:06.815Z,91.70
2018-01-16T07:28:34.554Z,92.02
2018-01-16T07:31:02.276Z,91.45
2018-01-16T07:33:30.032Z,90.83
2018-01-16T07:35:57.825Z,90.21
2018-01-16T07:38:25.528Z,89.50
2018-01-16T07:40:53.297Z,88.80
2018-01-16T07:43:21.065Z,81.38
2018-01-16T07:45:48.772Z,78.72
2018-01-16T07:48:16.509Z,83.96
2018-01-16T07:50:44.226Z,83.62
2018-01-16T07:53:11.988Z,79.35
2018-01-16T07:55:40.106Z,77.60
2018-01-16T07:58:08.010Z,78.22
2018-01-16T08:00:35.734Z,80.25
2018-01-16T08:03:03.451Z,78.57
2018-01-16T08:05:31.139Z,74.02
2018-01-16T08:07:58.892Z,71.07
2018-01-16T08:10:26.568Z,71.12
2018-01-16T08:12:54.397Z,69.09
2018-01-16T08:15:22.062Z,69.58
2018-01-16T08:17:50.347Z,72.04
2018-01-16T08:20:18.498Z,71.65
2018-01-16T08:22:46.229Z,72.93
2018-01-16T08:25:14.128Z,71.50
2018-01-16T08:27:41.834Z,71.02
2018-01-16T08:30:09.599Z,71.64
2018-01-16T08:32:38.087Z,74.29
2018-01-16T08:35:05.782Z,73.47
2018-01-16T08:37:33.547Z,71.53
2018-01-16T08:40:01.372Z,72.46
2018-01-16T08:42:29.190Z,70.68
2018-01-16T08:44:56.912Z,71.68
2018-01-16T08:47:24.677Z,67.56
2018-01-16T08:49:52.376Z,67.94
2018-01-16T08:52:20.111Z,68.55
2018-01-16T08:54:47.941Z,65.23
2018-01-16T08:57:15.641Z,70.96
2018-01-16T08:59:43.411Z,69.61
2018-01-16T09:02:11.159Z,66.81
2018-01-16T09:04:38.849Z,68.68
2018-01-16T09:07:06.517Z,71.35
2018-01-16T09:09:34.266Z,71.82
2018-01-16T09:12:01.978Z,73.40
2018-01-16T09:14:29.747Z,73.45
2018-01-16T09:16:57.482Z,73.25
2018-01-16T09:19:25.242Z,75.27
2018-01-16T09:21:53.037Z,74.79
2018-01-16T09:24:20.791Z,74.96
2018-01-16T09:26:48.975Z,75.59
2018-01-16T09:29:16.663Z,73.21
2018-01-16T09:31:44.455Z,73.80
2018-01-16T09:34:12.131Z,74.18
2018-01-16T09:36:39.870Z,74.06
2018-01-16T09:39:07.588Z,73.33
2018-01-16T09:41:35.309Z,76.58
2018-01-16T09:44:03.228Z,78.24
2018-01-16T09:46:30.928Z,78.40
2018-01-16T09:48:58.687Z,77.64
2018-01-16T09:51:26.471Z,76.79
2018-01-16T09:53:54.250Z,75.75
2018-01-16T09:56:21.968Z,74.42
2018-01-16T09:58:49.714Z,72.66
2018-01-16T10:01:17.395Z,74.17
2018-01-16T10:03:45.137Z,73.47
2018-01-16T10:06:12.914Z,71.73
2018-01-16T10:08:40.674Z,71.99
2018-01-16T10:11:08.389Z,73.99
2018-01-16T10:13:36.831Z,75.00
2018-01-16T10:16:04.588Z,73.29
2018-01-16T10:18:32.356Z,74.92
2018-01-16T10:21:00.121Z,74.45
2018-01-16T10:23:27.800Z,73.49
2018-01-16T10:25:55.555Z,73.69
2018-01-16T10:28:23.812Z,75.31
2018-01-16T10:30:51.640Z,76.06
2018-01-16T10:33:19.399Z,76.06
2018-01-16T10:38:21.088Z,76.46
2018-01-16T10:40:49.803Z,76.86
2018-01-16T10:43:17.590Z,76.39
2018-01-16T10:45:45.342Z,75.33
2018-01-16T10:48:13.089Z,74.93
2018-01-16T10:50:40.840Z,75.12
2018-01-16T10:53:08.597Z,74.99
2018-01-16T10:55:36.416Z,76.87
2018-01-16T10:58:04.208Z,78.25
2018-01-16T11:00:32.002Z,78.05
2018-01-16T11:02:59.714Z,77.59
2018-01-16T11:05:27.483Z,77.79
2018-01-16T11:07:55.380Z,77.45
2018-01-16T11:10:23.090Z,77.68
2018-01-16T11:12:50.794Z,77.47
2018-01-16T11:15:18.581Z,77.76
2018-01-16T11:17:46.330Z,77.41
2018-01-16T11:20:14.082Z,77.84
2018-01-16T11:22:41.883Z,77.44
2018-01-16T11:25:09.638Z,79.80
2018-01-16T11:27:37.418Z,80.33
2018-01-16T11:30:05.183Z,82.69
2018-01-16T11:32:33.006Z,80.48
2018-01-16T11:35:00.821Z,81.34
2018-01-16T11:37:28.491Z,80.07
2018-01-16T11:39:56.243Z,79.41
2018-01-16T11:42:23.954Z,78.96
2018-01-16T11:44:51.726Z,77.10
2018-01-16T11:47:19.478Z,77.26
2018-01-16T11:49:47.504Z,77.91
2018-01-16T11:52:15.225Z,77.37
2018-01-16T11:54:42.968Z,77.26
2018-01-16T11:57:10.757Z,77.22
2018-01-16T11:59:39.393Z,77.63
2018-01-16T12:02:07.185Z,78.07
2018-01-16T12:04:34.963Z,77.74
2018-01-16T12:07:02.746Z,77.72
2018-01-16T12:09:30.571Z,78.76
2018-01-16T12:11:58.431Z,80.73
2018-01-16T12:14:26.172Z,80.91
2018-01-16T12:16:53.949Z,79.73
2018-01-16T12:19:21.736Z,80.39
2018-01-16T12:21:50.371Z,80.05
2018-01-16T12:24:18.266Z,80.77
2018-01-16T12:26:46.031Z,79.75
2018-01-16T12:29:13.803Z,82.54
2018-01-16T12:31:42.422Z,83.95
2018-01-16T12:34:10.198Z,83.58
2018-01-16T12:36:37.901Z,81.79
2018-01-16T12:39:05.711Z,81.79
2018-01-16T12:41:33.406Z,81.85
2018-01-16T12:44:01.172Z,81.93
2018-01-16T12:46:28.883Z,81.23
2018-01-16T12:48:56.601Z,81.59
2018-01-16T12:51:24.384Z,81.70
2018-01-16T12:53:52.184Z,82.25
2018-01-16T12:56:19.966Z,82.04
2018-01-16T12:58:47.667Z,81.70
2018-01-16T13:01:15.388Z,82.36
2018-01-16T13:03:43.368Z,83.03
2018-01-16T13:06:11.149Z,83.39
2018-01-16T13:08:38.890Z,84.24
2018-01-16T13:11:07.010Z,85.90
2018-01-16T13:13:34.768Z,86.96
2018-01-16T13:16:02.515Z,88.07
2018-01-16T13:18:30.251Z,88.43
2018-01-16T13:20:58.009Z,88.89
2018-01-16T13:23:25.726Z,89.25
2018-01-16T13:25:53.450Z,88.25
2018-01-16T13:28:21.205Z,88.17
2018-01-16T13:30:49.077Z,87.55
2018-01-16T13:33:16.772Z,88.27
2018-01-16T13:35:44.475Z,87.67
2018-01-16T13:38:12.250Z,87.75
2018-01-16T13:40:39.986Z,87.30
2018-01-16T13:43:07.807Z,87.66
2018-01-16T13:45:35.657Z,87.10
2018-01-16T13:48:03.405Z,88.43
2018-01-16T13:50:31.203Z,88.18
2018-01-16T13:52:58.993Z,87.82
2018-01-16T13:55:26.767Z,89.83
2018-01-16T13:57:54.623Z,90.66
2018-01-16T14:00:22.346Z,91.19
2018-01-16T14:02:50.096Z,90.36
2018-01-16T14:05:17.861Z,89.83
2018-01-16T14:07:45.714Z,89.80
2018-01-16T14:10:13.426Z,89.09
2018-01-16T14:12:41.176Z,88.64
2018-01-16T14:15:08.957Z,89.28
2018-01-16T14:17:36.767Z,89.95
2018-01-16T14:20:04.601Z,90.54
2018-01-16T14:22:32.391Z,90.46
2018-01-16T14:25:00.165Z,89.37
2018-01-16T14:27:27.868Z,89.38
2018-01-16T14:29:55.633Z,90.18
2018-01-16T14:32:23.423Z,90.46
2018-01-16T14:34:52.212Z,91.14
2018-01-16T14:37:20.012Z,90.24
2018-01-16T14:39:47.767Z,89.54
2018-01-16T14:42:15.507Z,88.88
2018-01-16T14:44:43.337Z,89.44
2018-01-16T14:47:11.338Z,89.76
2018-01-16T14:49:39.791Z,90.29
2018-01-16T14:52:08.714Z,90.26
2018-01-16T14:54:37.764Z,90.87
2018-01-16T14:57:06.437Z,90.34
2018-01-16T14:59:34.293Z,90.35
2018-01-16T15:02:01.993Z,90.64
2018-01-16T15:04:29.826Z,90.70
2018-01-16T15:06:57.532Z,90.06
2018-01-16T15:09:25.320Z,89.94
2018-01-16T15:11:53.032Z,89.49
2018-01-16T15:14:20.870Z,89.22
2018-01-16T15:16:48.618Z,89.40
2018-01-16T15:19:16.366Z,89.85
2018-01-16T15:21:44.131Z,90.71
2018-01-16T15:24:11.893Z,90.00
2018-01-16T15:26:39.646Z,91.84
2018-01-16T15:29:07.483Z,92.95
2018-01-16T15:31:35.449Z,93.38
2018-01-16T15:34:03.308Z,93.42
2018-01-16T15:36:31.076Z,93.02
2018-01-16T15:38:58.797Z,92.12
2018-01-16T15:41:26.584Z,91.20
2018-01-16T15:43:55.815Z,91.85
2018-01-16T15:46:23.511Z,92.33
2018-01-16T15:48:51.206Z,92.51
2018-01-16T15:51:19.001Z,92.26
2018-01-16T15:53:46.727Z,93.07
2018-01-16T15:56:14.505Z,93.49
2018-01-16T15:58:42.353Z,93.99
2018-01-16T16:01:10.333Z,94.20
2018-01-16T16:03:38.213Z,94.06
2018-01-16T16:06:06.098Z,93.36
2018-01-16T16:08:34.065Z,93.43
2018-01-16T16:11:01.800Z,93.33
2018-01-16T16:13:29.643Z,92.88
2018-01-16T16:15:58.226Z,92.24
2018-01-16T16:18:26.089Z,92.42
2018-01-16T16:20:53.857Z,93.53
2018-01-16T16:23:21.651Z,93.91
2018-01-16T16:25:50.505Z,93.82
2018-01-16T16:28:18.298Z,92.93
2018-01-16T16:30:46.238Z,91.76
2018-01-16T16:33:14.017Z,91.87
2018-01-16T16:35:42.078Z,91.83
2018-01-16T16:38:09.854Z,92.50
2018-01-16T16:40:37.670Z,92.65
2018-01-16T16:43:05.463Z,92.47
2018-01-16T16:45:33.280Z,92.25
2018-01-16T16:48:01.159Z,93.06
2018-01-16T16:50:28.936Z,93.77
2018-01-16T16:52:57.859Z,94.30
2018-01-16T16:55:25.686Z,94.81
2018-01-16T16:57:53.548Z,95.09
2018-01-16T17:00:21.354Z,95.17
2018-01-16T17:02:49.179Z,95.01
2018-01-16T17:05:16.975Z,94.67
2018-01-16T17:07:44.790Z,94.84
2018-01-16T17:10:12.549Z,94.96
2018-01-16T17:12:40.468Z,94.92
2018-01-16T17:15:08.254Z,94.57
2018-01-16T17:17:36.101Z,94.41
2018-01-16T17:20:03.813Z,94.30
2018-01-16T17:22:31.498Z,94.16
2018-01-16T17:24:59.313Z,94.38
2018-01-16T17:27:27.004Z,94.39
2018-01-16T17:29:54.836Z,93.81
2018-01-16T17:32:22.629Z,93.29
2018-01-16T17:34:50.479Z,93.11
2018-01-16T17:37:18.225Z,93.27
2018-01-16T17:39:46.069Z,92.97
2018-01-16T17:42:14.648Z,92.95
2018-01-16T17:44:42.455Z,92.97
2018-01-16T17:47:10.232Z,93.23
2018-01-16T17:49:38.018Z,93.21
2018-01-16T17:52:05.827Z,92.93
2018-01-16T17:54:33.544Z,93.21
2018-01-16T17:57:01.454Z,93.13
2018-01-16T17:59:29.386Z,93.08
2018-01-16T18:01:57.234Z,93.16
2018-01-16T18:04:25.143Z,93.00
2018-01-16T18:06:53.253Z,93.08
2018-01-16T18:09:21.210Z,93.11
2018-01-16T18:11:49.127Z,92.90
2018-01-16T18:14:17.086Z,92.97
2018-01-16T18:16:44.791Z,93.09
2018-01-16T18:19:12.620Z,93.32
2018-01-16T18:21:40.630Z,93.36
2018-01-16T18:24:08.559Z,93.59
2018-01-16T18:26:36.353Z,93.72
2018-01-16T18:29:04.082Z,93.84
2018-01-16T18:31:32.087Z,93.41
2018-01-16T18:33:59.944Z,93.71
2018-01-16T18:36:28.295Z,94.54
2018-01-16T18:38:56.104Z,95.06
2018-01-16T18:41:26.366Z,95.22
2018-01-16T18:43:57.994Z,94.80
2018-01-16T18:46:27.057Z,94.09
2018-01-16T18:48:55.517Z,93.86
2018-01-16T18:51:23.383Z,93.73
2018-01-16T18:53:52.260Z,93.72
2018-01-16T18:56:19.992Z,93.32
2018-01-16T18:58:47.845Z,93.36
2018-01-16T19:01:15.703Z,93.62
2018-01-16T19:03:43.840Z,94.34
2018-01-16T19:06:11.713Z,94.83
2018-01-16T19:08:39.584Z,95.03
2018-01-16T19:11:07.479Z,95.01
2018-01-16T19:13:35.342Z,95.00
2018-01-16T19:16:03.462Z,94.71
2018-01-16T19:18:32.728Z,94.65
2018-01-16T19:21:01.524Z,94.81
2018-01-16T19:23:29.807Z,94.69
2018-01-16T19:26:01.400Z,94.61
2018-01-16T19:28:36.140Z,94.38
2018-01-16T19:31:04.601Z,95.16
2018-01-16T19:33:32.359Z,95.04
2018-01-16T19:36:01.534Z,95.05
2018-01-16T19:38:29.373Z,94.68
2018-01-16T19:40:58.958Z,95.06
2018-01-16T19:43:29.398Z,95.44
2018-01-16T19:45:59.837Z,95.33
2018-01-16T19:48:27.679Z,95.15
2018-01-16T19:50:58.869Z,94.70
2018-01-16T19:53:26.665Z,94.55
2018-01-16T19:55:54.777Z,94.56
2018-01-16T19:58:22.692Z,94.81
2018-01-16T20:00:52.513Z,95.19
2018-01-16T20:03:20.655Z,95.32
2018-01-16T20:05:50.570Z,95.67
2018-01-16T20:08:22.113Z,96.01
2018-01-16T20:10:49.880Z,95.77
2018-01-16T20:13:18.150Z,95.24
2018-01-16T20:15:46.130Z,94.90
2018-01-16T20:18:14.137Z,94.52
2018-01-16T20:20:41.895Z,94.77
2018-01-16T20:23:10.773Z,95.00
2018-01-16T20:25:38.550Z,95.17
2018-01-16T20:28:06.409Z,94.82
2018-01-16T20:30:34.313Z,94.46
2018-01-16T20:33:02.346Z,94.59
2018-01-16T20:35:30.511Z,94.46
2018-01-16T20:37:58.380Z,94.44
2018-01-16T20:40:27.451Z,94.63
2018-01-16T20:42:56.893Z,94.96
2018-01-16T20:45:24.781Z,94.93
2018-01-16T20:47:52.594Z,94.62
2018-01-16T20:50:20.858Z,94.55
2018-01-16T20:52:48.777Z,94.46
2018-01-16T20:55:18.900Z,94.25
2018-01-16T20:57:47.674Z,94.02
2018-01-16T21:00:15.557Z,94.15
2018-01-16T21:02:44.665Z,94.20
2018-01-16T21:05:16.131Z,94.17
2018-01-16T21:07:44.182Z,94.14
2018-01-16T21:10:11.930Z,93.89
2018-01-16T21:12:39.637Z,94.32
2018-01-16T21:15:07.384Z,94.54
2018-01-16T21:17:35.127Z,94.48
2018-01-16T21:20:02.970Z,94.36
2018-01-16T21:22:31.324Z,94.29
2018-01-16T21:25:00.870Z,94.34
2018-01-16T21:27:28.615Z,94.34
2018-01-16T21:29:56.369Z,95.11
2018-01-16T21:32:24.098Z,95.52
2018-01-16T21:34:51.879Z,95.23
2018-01-16T21:37:19.752Z,95.50
2018-01-16T21:39:47.416Z,95.40
2018-01-16T21:42:15.076Z,95.44
2018-01-16T21:44:42.842Z,95.35
2018-01-16T21:47:10.606Z,95.15
2018-01-16T21:49:38.396Z,95.14
2018-01-16T21:52:06.094Z,95.12
2018-01-16T21:54:33.846Z,94.97
2018-01-16T21:57:01.570Z,94.71
2018-01-16T21:59:29.444Z,94.45
2018-01-16T22:01:57.134Z,94.64
2018-01-16T22:04:24.918Z,95.05
2018-01-16T22:06:52.696Z,95.10
2018-01-16T22:09:20.417Z,95.17
2018-01-16T22:11:48.176Z,95.42
2018-01-16T22:14:15.944Z,95.26
2018-01-16T22:16:43.652Z,94.95
2018-01-16T22:19:11.399Z,94.76
2018-01-16T22:21:39.056Z,94.67
2018-01-16T22:24:06.769Z,94.56
2018-01-16T22:26:34.572Z,94.58
2018-01-16T22:29:02.322Z,94.78
2018-01-16T22:31:30.086Z,94.75
2018-01-16T22:33:58.718Z,94.50
2018-01-16T22:36:26.449Z,94.22
2018-01-16T22:38:54.204Z,94.45
2018-01-16T22:41:21.922Z,94.79
2018-01-16T22:43:49.712Z,95.02
2018-01-16T22:46:17.477Z,94.85
2018-01-16T22:48:45.186Z,94.72
2018-01-16T22:51:12.972Z,94.62
2018-01-16T22:53:40.771Z,94.93
2018-01-16T22:56:08.611Z,95.28
2018-01-16T22:58:36.381Z,95.23
2018-01-16T23:01:04.110Z,94.89
2018-01-16T23:03:31.896Z,94.50
2018-01-16T23:05:59.652Z,94.37
2018-01-16T23:08:27.438Z,94.32
2018-01-16T23:10:55.321Z,94.37
2018-01-16T23:13:23.108Z,94.72
2018-01-16T23:15:50.800Z,95.42
2018-01-16T23:18:18.516Z,95.74
2018-01-16T23:20:46.285Z,95.65
2018-01-16T23:23:14.010Z,95.60
2018-01-16T23:25:41.680Z,95.54
2018-01-16T23:28:09.417Z,95.95
2018-01-16T23:30:37.078Z,95.92
2018-01-16T23:33:04.797Z,95.63
2018-01-16T23:35:32.460Z,95.56
2018-01-16T23:38:00.125Z,95.66
2018-01-16T23:40:27.866Z,95.47
2018-01-16T23:42:55.619Z,95.53
2018-01-16T23:45:23.295Z,95.42
2018-01-16T23:47:51.029Z,94.92
2018-01-16T23:50:18.721Z,94.55
2018-01-16T23:52:46.588Z,94.15
2018-01-16T23:55:14.279Z,94.06
2018-01-16T23:57:41.939Z,93.99
